sensor_id;sensor_type;location;lat;lon;timestamp;P1;durP1;ratioP1;P2;durP2;ratioP2
61756;SDS011;57225;61.460;24.060;2023-02-11T00:02:21;10.55;;;1.40;;
61756;SDS011;57225;61.460;24.060;2023-02-11T00:05:06;13.45;;;1.77;;
61756;SDS011;57225;61.460;24.060;2023-02-11T00:07:50;12.15;;;1.35;;
61756;SDS011;57225;61.460;24.060;2023-02-11T00:10:35;11.05;;;1.58;;
61756;SDS011;57225;61.460;24.060;2023-02-11T00:13:19;11.90;;;1.67;;
61756;SDS011;57225;61.460;24.060;2023-02-11T00:16:05;16.63;;;1.83;;
61756;SDS011;57225;61.460;24.060;2023-02-11T00:18:51;16.08;;;1.85;;
61756;SDS011;57225;61.460;24.060;2023-02-11T00:21:36;11.40;;;1.30;;
61756;SDS011;57225;61.460;24.060;2023-02-11T00:24:21;9.40;;;1.25;;
61756;SDS011;57225;61.460;24.060;2023-02-11T00:27:05;9.15;;;1.25;;
61756;SDS011;57225;61.460;24.060;2023-02-11T00:29:50;10.00;;;1.52;;
61756;SDS011;57225;61.460;24.060;2023-02-11T00:32:35;10.43;;;1.10;;
61756;SDS011;57225;61.460;24.060;2023-02-11T00:35:19;10.57;;;1.73;;
61756;SDS011;57225;61.460;24.060;2023-02-11T00:38:04;11.48;;;2.63;;
61756;SDS011;57225;61.460;24.060;2023-02-11T00:40:48;20.67;;;1.80;;
61756;SDS011;57225;61.460;24.060;2023-02-11T00:43:34;12.05;;;1.25;;
61756;SDS011;57225;61.460;24.060;2023-02-11T00:46:19;19.77;;;1.70;;
61756;SDS011;57225;61.460;24.060;2023-02-11T00:49:04;12.68;;;1.30;;
61756;SDS011;57225;61.460;24.060;2023-02-11T00:51:48;9.70;;;1.30;;
61756;SDS011;57225;61.460;24.060;2023-02-11T00:54:33;12.55;;;1.35;;
61756;SDS011;57225;61.460;24.060;2023-02-11T00:57:17;12.20;;;1.27;;
61756;SDS011;57225;61.460;24.060;2023-02-11T01:00:03;15.15;;;1.45;;
61756;SDS011;57225;61.460;24.060;2023-02-11T01:02:48;8.68;;;0.90;;
61756;SDS011;57225;61.460;24.060;2023-02-11T01:05:32;9.18;;;1.52;;
61756;SDS011;57225;61.460;24.060;2023-02-11T01:08:17;10.57;;;1.30;;
61756;SDS011;57225;61.460;24.060;2023-02-11T01:11:03;9.38;;;1.55;;
61756;SDS011;57225;61.460;24.060;2023-02-11T01:13:50;8.57;;;1.05;;
61756;SDS011;57225;61.460;24.060;2023-02-11T01:16:34;12.80;;;1.33;;
61756;SDS011;57225;61.460;24.060;2023-02-11T01:19:19;13.15;;;1.80;;
61756;SDS011;57225;61.460;24.060;2023-02-11T01:22:04;8.90;;;2.00;;
61756;SDS011;57225;61.460;24.060;2023-02-11T01:24:48;12.55;;;1.30;;
61756;SDS011;57225;61.460;24.060;2023-02-11T01:27:32;4.38;;;1.48;;
61756;SDS011;57225;61.460;24.060;2023-02-11T01:30:17;15.40;;;1.60;;
61756;SDS011;57225;61.460;24.060;2023-02-11T01:33:01;6.72;;;0.95;;
61756;SDS011;57225;61.460;24.060;2023-02-11T01:35:45;13.05;;;1.50;;
61756;SDS011;57225;61.460;24.060;2023-02-11T01:38:30;8.48;;;1.45;;
61756;SDS011;57225;61.460;24.060;2023-02-11T01:41:15;13.45;;;1.55;;
61756;SDS011;57225;61.460;24.060;2023-02-11T01:47:07;6.32;;;1.08;;
61756;SDS011;57225;61.460;24.060;2023-02-11T01:49:54;8.77;;;1.23;;
61756;SDS011;57225;61.460;24.060;2023-02-11T01:52:40;8.80;;;2.72;;
61756;SDS011;57225;61.460;24.060;2023-02-11T01:55:26;18.30;;;1.50;;
61756;SDS011;57225;61.460;24.060;2023-02-11T01:58:29;8.73;;;2.50;;
61756;SDS011;57225;61.460;24.060;2023-02-11T02:01:16;5.35;;;1.55;;
61756;SDS011;57225;61.460;24.060;2023-02-11T02:04:06;10.88;;;1.30;;
61756;SDS011;57225;61.460;24.060;2023-02-11T02:07:01;7.63;;;1.25;;
61756;SDS011;57225;61.460;24.060;2023-02-11T02:09:52;10.82;;;1.30;;
61756;SDS011;57225;61.460;24.060;2023-02-11T02:12:43;12.52;;;1.25;;
61756;SDS011;57225;61.460;24.060;2023-02-11T02:15:34;14.35;;;1.60;;
61756;SDS011;57225;61.460;24.060;2023-02-11T02:34:21;11.43;;;1.15;;
61756;SDS011;57225;61.460;24.060;2023-02-11T02:37:25;11.15;;;1.60;;
61756;SDS011;57225;61.460;24.060;2023-02-11T02:40:27;8.10;;;1.10;;
61756;SDS011;57225;61.460;24.060;2023-02-11T02:43:15;5.93;;;1.52;;
61756;SDS011;57225;61.460;24.060;2023-02-11T02:49:05;7.53;;;1.20;;
61756;SDS011;57225;61.460;24.060;2023-02-11T02:52:00;12.52;;;1.75;;
61756;SDS011;57225;61.460;24.060;2023-02-11T03:03:54;8.13;;;1.88;;
61756;SDS011;57225;61.460;24.060;2023-02-11T03:06:51;10.20;;;2.45;;
61756;SDS011;57225;61.460;24.060;2023-02-11T03:10:12;15.13;;;2.63;;
61756;SDS011;57225;61.460;24.060;2023-02-11T03:12:57;15.88;;;2.40;;
61756;SDS011;57225;61.460;24.060;2023-02-11T03:15:45;11.30;;;1.92;;
61756;SDS011;57225;61.460;24.060;2023-02-11T03:18:33;12.45;;;3.08;;
61756;SDS011;57225;61.460;24.060;2023-02-11T03:21:19;18.92;;;3.50;;
61756;SDS011;57225;61.460;24.060;2023-02-11T03:24:06;16.60;;;3.08;;
61756;SDS011;57225;61.460;24.060;2023-02-11T03:27:00;14.15;;;3.85;;
61756;SDS011;57225;61.460;24.060;2023-02-11T03:30:13;16.75;;;4.90;;
61756;SDS011;57225;61.460;24.060;2023-02-11T03:33:08;19.40;;;4.47;;
61756;SDS011;57225;61.460;24.060;2023-02-11T03:36:02;15.65;;;4.50;;
61756;SDS011;57225;61.460;24.060;2023-02-11T03:38:55;14.23;;;3.78;;
61756;SDS011;57225;61.460;24.060;2023-02-11T03:41:41;14.88;;;3.35;;
61756;SDS011;57225;61.460;24.060;2023-02-11T03:44:29;14.73;;;2.40;;
61756;SDS011;57225;61.460;24.060;2023-02-11T03:47:22;16.77;;;3.22;;
61756;SDS011;57225;61.460;24.060;2023-02-11T03:50:10;18.48;;;4.25;;
61756;SDS011;57225;61.460;24.060;2023-02-11T03:52:57;7.93;;;2.85;;
61756;SDS011;57225;61.460;24.060;2023-02-11T03:55:44;15.82;;;3.63;;
61756;SDS011;57225;61.460;24.060;2023-02-11T03:58:32;12.95;;;3.20;;
61756;SDS011;57225;61.460;24.060;2023-02-11T04:01:16;12.63;;;3.78;;
61756;SDS011;57225;61.460;24.060;2023-02-11T04:04:01;16.48;;;3.10;;
61756;SDS011;57225;61.460;24.060;2023-02-11T04:06:45;11.60;;;3.20;;
61756;SDS011;57225;61.460;24.060;2023-02-11T04:09:30;10.30;;;2.83;;
61756;SDS011;57225;61.460;24.060;2023-02-11T04:12:14;12.30;;;3.08;;
61756;SDS011;57225;61.460;24.060;2023-02-11T04:14:59;18.83;;;2.63;;
61756;SDS011;57225;61.460;24.060;2023-02-11T04:17:43;9.43;;;2.55;;
61756;SDS011;57225;61.460;24.060;2023-02-11T04:20:28;11.18;;;2.60;;
61756;SDS011;57225;61.460;24.060;2023-02-11T04:23:12;12.23;;;2.50;;
61756;SDS011;57225;61.460;24.060;2023-02-11T04:25:57;12.40;;;2.95;;
61756;SDS011;57225;61.460;24.060;2023-02-11T04:28:41;12.25;;;2.53;;
61756;SDS011;57225;61.460;24.060;2023-02-11T04:31:25;14.23;;;2.90;;
61756;SDS011;57225;61.460;24.060;2023-02-11T04:34:10;10.82;;;2.05;;
61756;SDS011;57225;61.460;24.060;2023-02-11T04:36:54;11.43;;;2.60;;
61756;SDS011;57225;61.460;24.060;2023-02-11T04:39:39;13.98;;;2.75;;
61756;SDS011;57225;61.460;24.060;2023-02-11T04:42:23;8.05;;;2.70;;
61756;SDS011;57225;61.460;24.060;2023-02-11T04:45:08;7.15;;;1.77;;
61756;SDS011;57225;61.460;24.060;2023-02-11T04:47:52;7.43;;;1.77;;
61756;SDS011;57225;61.460;24.060;2023-02-11T04:50:37;10.93;;;1.95;;
61756;SDS011;57225;61.460;24.060;2023-02-11T04:53:21;8.85;;;1.38;;
61756;SDS011;57225;61.460;24.060;2023-02-11T04:56:06;10.80;;;1.70;;
61756;SDS011;57225;61.460;24.060;2023-02-11T04:58:50;12.43;;;1.83;;
61756;SDS011;57225;61.460;24.060;2023-02-11T05:01:35;14.73;;;1.55;;
61756;SDS011;57225;61.460;24.060;2023-02-11T05:04:19;15.23;;;2.25;;
61756;SDS011;57225;61.460;24.060;2023-02-11T05:07:04;14.57;;;2.05;;
61756;SDS011;57225;61.460;24.060;2023-02-11T05:09:49;8.55;;;1.90;;
61756;SDS011;57225;61.460;24.060;2023-02-11T05:12:33;6.55;;;1.42;;
61756;SDS011;57225;61.460;24.060;2023-02-11T05:15:18;6.05;;;1.83;;
61756;SDS011;57225;61.460;24.060;2023-02-11T05:18:02;17.77;;;1.73;;
61756;SDS011;57225;61.460;24.060;2023-02-11T05:20:46;9.27;;;1.60;;
61756;SDS011;57225;61.460;24.060;2023-02-11T05:23:31;8.73;;;1.75;;
61756;SDS011;57225;61.460;24.060;2023-02-11T05:26:17;7.22;;;1.55;;
61756;SDS011;57225;61.460;24.060;2023-02-11T05:29:01;6.28;;;1.30;;
61756;SDS011;57225;61.460;24.060;2023-02-11T05:31:46;8.98;;;1.40;;
61756;SDS011;57225;61.460;24.060;2023-02-11T05:34:30;11.48;;;1.85;;
61756;SDS011;57225;61.460;24.060;2023-02-11T05:37:15;4.47;;;1.27;;
61756;SDS011;57225;61.460;24.060;2023-02-11T05:39:59;4.35;;;1.20;;
61756;SDS011;57225;61.460;24.060;2023-02-11T05:42:44;9.05;;;1.38;;
61756;SDS011;57225;61.460;24.060;2023-02-11T05:45:28;9.40;;;1.83;;
61756;SDS011;57225;61.460;24.060;2023-02-11T05:48:13;11.65;;;1.63;;
61756;SDS011;57225;61.460;24.060;2023-02-11T05:50:57;6.95;;;1.40;;
61756;SDS011;57225;61.460;24.060;2023-02-11T05:53:42;15.10;;;2.20;;
61756;SDS011;57225;61.460;24.060;2023-02-11T05:56:26;5.25;;;1.30;;
61756;SDS011;57225;61.460;24.060;2023-02-11T05:59:12;8.82;;;1.95;;
61756;SDS011;57225;61.460;24.060;2023-02-11T06:01:57;10.93;;;1.67;;
61756;SDS011;57225;61.460;24.060;2023-02-11T06:04:42;5.40;;;1.10;;
61756;SDS011;57225;61.460;24.060;2023-02-11T06:07:27;4.63;;;1.35;;
61756;SDS011;57225;61.460;24.060;2023-02-11T06:10:11;11.65;;;1.65;;
61756;SDS011;57225;61.460;24.060;2023-02-11T06:12:56;13.40;;;1.45;;
61756;SDS011;57225;61.460;24.060;2023-02-11T06:15:40;10.50;;;1.50;;
61756;SDS011;57225;61.460;24.060;2023-02-11T06:18:25;11.52;;;2.40;;
61756;SDS011;57225;61.460;24.060;2023-02-11T06:21:09;10.90;;;1.60;;
61756;SDS011;57225;61.460;24.060;2023-02-11T06:23:54;13.95;;;1.80;;
61756;SDS011;57225;61.460;24.060;2023-02-11T06:26:39;13.98;;;2.08;;
61756;SDS011;57225;61.460;24.060;2023-02-11T06:29:23;13.02;;;2.00;;
61756;SDS011;57225;61.460;24.060;2023-02-11T06:32:08;17.20;;;1.50;;
61756;SDS011;57225;61.460;24.060;2023-02-11T06:34:52;9.40;;;1.98;;
61756;SDS011;57225;61.460;24.060;2023-02-11T06:55:41;18.48;;;3.03;;
61756;SDS011;57225;61.460;24.060;2023-02-11T06:58:26;19.50;;;4.15;;
61756;SDS011;57225;61.460;24.060;2023-02-11T07:01:11;12.50;;;2.80;;
61756;SDS011;57225;61.460;24.060;2023-02-11T07:03:58;7.32;;;2.83;;
61756;SDS011;57225;61.460;24.060;2023-02-11T07:06:42;11.18;;;2.78;;
61756;SDS011;57225;61.460;24.060;2023-02-11T07:09:27;14.25;;;2.90;;
61756;SDS011;57225;61.460;24.060;2023-02-11T07:12:11;15.80;;;2.90;;
61756;SDS011;57225;61.460;24.060;2023-02-11T07:14:56;9.90;;;2.70;;
61756;SDS011;57225;61.460;24.060;2023-02-11T07:17:41;12.18;;;2.90;;
61756;SDS011;57225;61.460;24.060;2023-02-11T07:20:25;16.67;;;2.67;;
61756;SDS011;57225;61.460;24.060;2023-02-11T07:23:10;10.32;;;2.90;;
61756;SDS011;57225;61.460;24.060;2023-02-11T07:25:54;16.00;;;2.70;;
61756;SDS011;57225;61.460;24.060;2023-02-11T07:28:39;14.63;;;2.10;;
61756;SDS011;57225;61.460;24.060;2023-02-11T07:31:25;13.10;;;2.20;;
61756;SDS011;57225;61.460;24.060;2023-02-11T07:34:11;13.35;;;1.88;;
61756;SDS011;57225;61.460;24.060;2023-02-11T07:36:55;11.30;;;2.00;;
61756;SDS011;57225;61.460;24.060;2023-02-11T07:39:39;14.00;;;2.08;;
61756;SDS011;57225;61.460;24.060;2023-02-11T07:42:24;10.02;;;1.45;;
61756;SDS011;57225;61.460;24.060;2023-02-11T07:45:08;15.85;;;2.33;;
61756;SDS011;57225;61.460;24.060;2023-02-11T07:47:53;13.85;;;2.10;;
61756;SDS011;57225;61.460;24.060;2023-02-11T07:50:37;20.80;;;2.65;;
61756;SDS011;57225;61.460;24.060;2023-02-11T07:53:22;12.82;;;1.83;;
61756;SDS011;57225;61.460;24.060;2023-02-11T07:56:06;12.82;;;1.52;;
61756;SDS011;57225;61.460;24.060;2023-02-11T07:58:52;11.35;;;1.38;;
61756;SDS011;57225;61.460;24.060;2023-02-11T08:01:38;5.25;;;1.45;;
61756;SDS011;57225;61.460;24.060;2023-02-11T08:04:22;15.93;;;1.50;;
61756;SDS011;57225;61.460;24.060;2023-02-11T08:07:07;6.75;;;1.60;;
61756;SDS011;57225;61.460;24.060;2023-02-11T08:09:52;12.18;;;1.42;;
61756;SDS011;57225;61.460;24.060;2023-02-11T08:12:37;6.63;;;1.40;;
61756;SDS011;57225;61.460;24.060;2023-02-11T08:15:22;11.43;;;1.58;;
61756;SDS011;57225;61.460;24.060;2023-02-11T08:18:06;8.52;;;1.73;;
61756;SDS011;57225;61.460;24.060;2023-02-11T08:20:51;9.02;;;1.98;;
61756;SDS011;57225;61.460;24.060;2023-02-11T08:23:35;12.63;;;1.92;;
61756;SDS011;57225;61.460;24.060;2023-02-11T08:26:22;8.85;;;2.00;;
61756;SDS011;57225;61.460;24.060;2023-02-11T08:29:09;8.63;;;1.77;;
61756;SDS011;57225;61.460;24.060;2023-02-11T08:31:55;20.88;;;2.80;;
61756;SDS011;57225;61.460;24.060;2023-02-11T08:34:40;10.05;;;2.20;;
61756;SDS011;57225;61.460;24.060;2023-02-11T08:37:24;15.30;;;2.45;;
61756;SDS011;57225;61.460;24.060;2023-02-11T08:40:09;13.32;;;2.20;;
61756;SDS011;57225;61.460;24.060;2023-02-11T08:42:53;17.10;;;2.53;;
61756;SDS011;57225;61.460;24.060;2023-02-11T08:45:38;15.55;;;2.30;;
61756;SDS011;57225;61.460;24.060;2023-02-11T08:48:22;8.23;;;2.28;;
61756;SDS011;57225;61.460;24.060;2023-02-11T08:51:07;11.02;;;2.28;;
61756;SDS011;57225;61.460;24.060;2023-02-11T08:53:53;13.07;;;2.30;;
61756;SDS011;57225;61.460;24.060;2023-02-11T08:56:38;10.05;;;2.28;;
61756;SDS011;57225;61.460;24.060;2023-02-11T08:59:22;12.98;;;2.20;;
61756;SDS011;57225;61.460;24.060;2023-02-11T09:02:10;9.07;;;2.08;;
61756;SDS011;57225;61.460;24.060;2023-02-11T09:04:55;13.93;;;1.30;;
61756;SDS011;57225;61.460;24.060;2023-02-11T09:07:40;11.38;;;1.92;;
61756;SDS011;57225;61.460;24.060;2023-02-11T09:10:24;14.35;;;1.58;;
61756;SDS011;57225;61.460;24.060;2023-02-11T09:13:09;11.32;;;1.40;;
61756;SDS011;57225;61.460;24.060;2023-02-11T09:15:53;5.85;;;1.30;;
61756;SDS011;57225;61.460;24.060;2023-02-11T09:18:38;8.88;;;1.67;;
61756;SDS011;57225;61.460;24.060;2023-02-11T09:21:22;8.15;;;1.50;;
61756;SDS011;57225;61.460;24.060;2023-02-11T09:24:07;9.52;;;1.30;;
61756;SDS011;57225;61.460;24.060;2023-02-11T09:26:51;8.75;;;1.40;;
61756;SDS011;57225;61.460;24.060;2023-02-11T09:29:35;10.60;;;1.58;;
61756;SDS011;57225;61.460;24.060;2023-02-11T09:32:20;13.98;;;1.60;;
61756;SDS011;57225;61.460;24.060;2023-02-11T09:35:04;14.70;;;1.30;;
61756;SDS011;57225;61.460;24.060;2023-02-11T09:37:52;7.65;;;1.73;;
61756;SDS011;57225;61.460;24.060;2023-02-11T09:40:40;12.93;;;1.90;;
61756;SDS011;57225;61.460;24.060;2023-02-11T09:43:30;8.75;;;1.65;;
61756;SDS011;57225;61.460;24.060;2023-02-11T09:46:25;11.63;;;1.60;;
61756;SDS011;57225;61.460;24.060;2023-02-11T09:49:22;9.35;;;1.83;;
61756;SDS011;57225;61.460;24.060;2023-02-11T09:52:30;11.18;;;1.35;;
61756;SDS011;57225;61.460;24.060;2023-02-11T09:55:27;10.95;;;1.75;;
61756;SDS011;57225;61.460;24.060;2023-02-11T09:58:25;11.07;;;1.65;;
61756;SDS011;57225;61.460;24.060;2023-02-11T10:10:13;7.45;;;1.33;;
61756;SDS011;57225;61.460;24.060;2023-02-11T10:15:55;7.60;;;1.40;;
61756;SDS011;57225;61.460;24.060;2023-02-11T10:18:57;9.07;;;1.70;;
61756;SDS011;57225;61.460;24.060;2023-02-11T10:22:11;9.73;;;2.38;;
61756;SDS011;57225;61.460;24.060;2023-02-11T10:25:05;15.98;;;1.77;;
61756;SDS011;57225;61.460;24.060;2023-02-11T10:28:09;13.27;;;1.40;;
61756;SDS011;57225;61.460;24.060;2023-02-11T10:30:58;5.82;;;1.40;;
61756;SDS011;57225;61.460;24.060;2023-02-11T10:33:48;8.88;;;1.67;;
61756;SDS011;57225;61.460;24.060;2023-02-11T10:36:40;6.30;;;1.23;;
61756;SDS011;57225;61.460;24.060;2023-02-11T10:39:26;5.97;;;1.17;;
61756;SDS011;57225;61.460;24.060;2023-02-11T10:42:11;6.82;;;1.17;;
61756;SDS011;57225;61.460;24.060;2023-02-11T10:44:58;9.55;;;1.70;;
61756;SDS011;57225;61.460;24.060;2023-02-11T10:47:45;7.75;;;1.77;;
61756;SDS011;57225;61.460;24.060;2023-02-11T10:50:30;7.90;;;1.58;;
61756;SDS011;57225;61.460;24.060;2023-02-11T10:53:18;6.75;;;1.42;;
61756;SDS011;57225;61.460;24.060;2023-02-11T10:56:05;12.65;;;1.10;;
61756;SDS011;57225;61.460;24.060;2023-02-11T10:58:58;8.80;;;1.55;;
61756;SDS011;57225;61.460;24.060;2023-02-11T11:01:45;9.07;;;1.65;;
61756;SDS011;57225;61.460;24.060;2023-02-11T11:04:41;6.85;;;1.20;;
61756;SDS011;57225;61.460;24.060;2023-02-11T11:07:28;8.45;;;1.27;;
61756;SDS011;57225;61.460;24.060;2023-02-11T11:10:28;13.85;;;1.63;;
61756;SDS011;57225;61.460;24.060;2023-02-11T11:13:27;5.85;;;1.27;;
61756;SDS011;57225;61.460;24.060;2023-02-11T11:16:16;6.65;;;1.23;;
61756;SDS011;57225;61.460;24.060;2023-02-11T11:21:51;12.43;;;1.55;;
61756;SDS011;57225;61.460;24.060;2023-02-11T11:24:43;8.40;;;1.05;;
61756;SDS011;57225;61.460;24.060;2023-02-11T11:27:29;9.35;;;1.50;;
61756;SDS011;57225;61.460;24.060;2023-02-11T11:30:14;4.97;;;1.20;;
61756;SDS011;57225;61.460;24.060;2023-02-11T11:33:00;10.07;;;1.30;;
61756;SDS011;57225;61.460;24.060;2023-02-11T11:35:53;7.72;;;1.05;;
61756;SDS011;57225;61.460;24.060;2023-02-11T11:38:43;5.72;;;1.65;;
61756;SDS011;57225;61.460;24.060;2023-02-11T11:41:33;9.80;;;1.63;;
61756;SDS011;57225;61.460;24.060;2023-02-11T11:44:28;13.98;;;1.25;;
61756;SDS011;57225;61.460;24.060;2023-02-11T11:47:28;7.13;;;1.45;;
61756;SDS011;57225;61.460;24.060;2023-02-11T11:50:39;15.55;;;1.73;;
61756;SDS011;57225;61.460;24.060;2023-02-11T11:53:34;8.10;;;1.33;;
61756;SDS011;57225;61.460;24.060;2023-02-11T11:56:29;5.82;;;1.10;;
61756;SDS011;57225;61.460;24.060;2023-02-11T11:59:16;7.80;;;1.30;;
61756;SDS011;57225;61.460;24.060;2023-02-11T12:02:06;8.70;;;1.60;;
61756;SDS011;57225;61.460;24.060;2023-02-11T12:08:37;5.63;;;1.23;;
61756;SDS011;57225;61.460;24.060;2023-02-11T12:17:56;6.70;;;1.27;;
61756;SDS011;57225;61.460;24.060;2023-02-11T12:21:08;8.88;;;1.58;;
61756;SDS011;57225;61.460;24.060;2023-02-11T12:36:15;10.77;;;2.58;;
61756;SDS011;57225;61.460;24.060;2023-02-11T12:42:55;7.65;;;2.05;;
61756;SDS011;57225;61.460;24.060;2023-02-11T12:55:47;6.75;;;1.48;;
61756;SDS011;57225;61.460;24.060;2023-02-11T12:58:37;9.80;;;2.00;;
61756;SDS011;57225;61.460;24.060;2023-02-11T13:01:25;9.52;;;1.52;;
61756;SDS011;57225;61.460;24.060;2023-02-11T13:04:23;27.58;;;1.48;;
61756;SDS011;57225;61.460;24.060;2023-02-11T13:07:25;7.60;;;1.35;;
61756;SDS011;57225;61.460;24.060;2023-02-11T13:10:26;6.97;;;1.20;;
61756;SDS011;57225;61.460;24.060;2023-02-11T13:13:27;7.32;;;1.60;;
61756;SDS011;57225;61.460;24.060;2023-02-11T13:16:17;7.60;;;1.23;;
61756;SDS011;57225;61.460;24.060;2023-02-11T13:25:18;6.00;;;1.30;;
61756;SDS011;57225;61.460;24.060;2023-02-11T13:31:09;10.85;;;1.42;;
61756;SDS011;57225;61.460;24.060;2023-02-11T13:33:55;6.22;;;1.13;;
61756;SDS011;57225;61.460;24.060;2023-02-11T13:36:39;4.75;;;1.00;;
61756;SDS011;57225;61.460;24.060;2023-02-11T13:39:24;8.18;;;1.63;;
61756;SDS011;57225;61.460;24.060;2023-02-11T13:42:11;5.57;;;1.75;;
61756;SDS011;57225;61.460;24.060;2023-02-11T13:44:59;9.18;;;1.77;;
61756;SDS011;57225;61.460;24.060;2023-02-11T13:47:43;10.75;;;1.17;;
61756;SDS011;57225;61.460;24.060;2023-02-11T13:50:28;13.25;;;2.88;;
61756;SDS011;57225;61.460;24.060;2023-02-11T13:53:20;6.75;;;1.17;;
61756;SDS011;57225;61.460;24.060;2023-02-11T13:56:07;8.43;;;1.40;;
61756;SDS011;57225;61.460;24.060;2023-02-11T13:58:55;6.95;;;1.13;;
61756;SDS011;57225;61.460;24.060;2023-02-11T14:05:01;7.35;;;1.23;;
61756;SDS011;57225;61.460;24.060;2023-02-11T14:08:24;14.80;;;1.55;;
61756;SDS011;57225;61.460;24.060;2023-02-11T14:14:25;6.30;;;1.27;;
61756;SDS011;57225;61.460;24.060;2023-02-11T14:19:56;7.63;;;1.10;;
61756;SDS011;57225;61.460;24.060;2023-02-11T14:22:43;9.88;;;1.33;;
61756;SDS011;57225;61.460;24.060;2023-02-11T14:25:32;7.38;;;1.45;;
61756;SDS011;57225;61.460;24.060;2023-02-11T14:28:21;6.50;;;1.40;;
61756;SDS011;57225;61.460;24.060;2023-02-11T14:31:10;5.95;;;1.15;;
61756;SDS011;57225;61.460;24.060;2023-02-11T14:37:43;5.38;;;1.02;;
61756;SDS011;57225;61.460;24.060;2023-02-11T14:41:00;8.25;;;1.48;;
61756;SDS011;57225;61.460;24.060;2023-02-11T14:44:05;8.35;;;1.55;;
61756;SDS011;57225;61.460;24.060;2023-02-11T14:46:58;8.50;;;1.40;;
61756;SDS011;57225;61.460;24.060;2023-02-11T14:49:42;8.85;;;1.27;;
61756;SDS011;57225;61.460;24.060;2023-02-11T14:52:28;8.73;;;1.38;;
61756;SDS011;57225;61.460;24.060;2023-02-11T14:55:49;5.70;;;1.42;;
61756;SDS011;57225;61.460;24.060;2023-02-11T14:58:28;9.93;;;2.38;;
61756;SDS011;57225;61.460;24.060;2023-02-11T15:07:19;7.82;;;1.13;;
61756;SDS011;57225;61.460;24.060;2023-02-11T15:10:04;10.45;;;2.58;;
61756;SDS011;57225;61.460;24.060;2023-02-11T15:12:49;4.40;;;1.02;;
61756;SDS011;57225;61.460;24.060;2023-02-11T15:15:33;8.45;;;1.20;;
61756;SDS011;57225;61.460;24.060;2023-02-11T15:18:20;4.38;;;1.25;;
61756;SDS011;57225;61.460;24.060;2023-02-11T15:21:07;8.37;;;1.00;;
61756;SDS011;57225;61.460;24.060;2023-02-11T15:26:53;14.32;;;1.77;;
61756;SDS011;57225;61.460;24.060;2023-02-11T15:29:40;8.40;;;1.60;;
61756;SDS011;57225;61.460;24.060;2023-02-11T15:32:26;11.52;;;2.00;;
61756;SDS011;57225;61.460;24.060;2023-02-11T15:35:11;11.10;;;1.77;;
61756;SDS011;57225;61.460;24.060;2023-02-11T15:37:59;5.88;;;1.40;;
61756;SDS011;57225;61.460;24.060;2023-02-11T15:40:51;12.82;;;2.63;;
61756;SDS011;57225;61.460;24.060;2023-02-11T15:43:44;12.32;;;3.00;;
61756;SDS011;57225;61.460;24.060;2023-02-11T15:46:35;17.55;;;3.92;;
61756;SDS011;57225;61.460;24.060;2023-02-11T15:49:22;7.45;;;1.85;;
61756;SDS011;57225;61.460;24.060;2023-02-11T15:52:07;7.88;;;2.65;;
61756;SDS011;57225;61.460;24.060;2023-02-11T15:54:52;18.35;;;8.35;;
61756;SDS011;57225;61.460;24.060;2023-02-11T15:57:44;13.90;;;3.50;;
61756;SDS011;57225;61.460;24.060;2023-02-11T16:00:35;8.32;;;2.92;;
61756;SDS011;57225;61.460;24.060;2023-02-11T16:03:22;7.68;;;2.25;;
61756;SDS011;57225;61.460;24.060;2023-02-11T16:06:21;6.65;;;2.35;;
61756;SDS011;57225;61.460;24.060;2023-02-11T16:11:55;12.40;;;1.63;;
61756;SDS011;57225;61.460;24.060;2023-02-11T16:14:41;4.70;;;1.20;;
61756;SDS011;57225;61.460;24.060;2023-02-11T16:17:26;9.73;;;1.88;;
61756;SDS011;57225;61.460;24.060;2023-02-11T16:20:18;5.85;;;1.67;;
61756;SDS011;57225;61.460;24.060;2023-02-11T16:23:03;5.35;;;1.42;;
61756;SDS011;57225;61.460;24.060;2023-02-11T16:25:57;6.97;;;1.38;;
61756;SDS011;57225;61.460;24.060;2023-02-11T16:29:46;6.65;;;1.60;;
61756;SDS011;57225;61.460;24.060;2023-02-11T16:32:19;10.60;;;1.98;;
61756;SDS011;57225;61.460;24.060;2023-02-11T16:35:06;10.90;;;1.70;;
61756;SDS011;57225;61.460;24.060;2023-02-11T16:37:54;7.65;;;2.10;;
61756;SDS011;57225;61.460;24.060;2023-02-11T16:40:38;13.45;;;2.58;;
61756;SDS011;57225;61.460;24.060;2023-02-11T16:43:23;10.40;;;2.60;;
61756;SDS011;57225;61.460;24.060;2023-02-11T16:46:09;12.02;;;2.80;;
61756;SDS011;57225;61.460;24.060;2023-02-11T16:48:57;11.27;;;2.72;;
61756;SDS011;57225;61.460;24.060;2023-02-11T16:52:05;9.43;;;3.22;;
61756;SDS011;57225;61.460;24.060;2023-02-11T16:54:51;8.13;;;2.60;;
61756;SDS011;57225;61.460;24.060;2023-02-11T16:57:36;9.07;;;2.10;;
61756;SDS011;57225;61.460;24.060;2023-02-11T17:00:20;6.38;;;1.50;;
61756;SDS011;57225;61.460;24.060;2023-02-11T17:03:06;5.65;;;1.55;;
61756;SDS011;57225;61.460;24.060;2023-02-11T17:05:52;7.22;;;1.30;;
61756;SDS011;57225;61.460;24.060;2023-02-11T17:08:36;7.25;;;1.60;;
61756;SDS011;57225;61.460;24.060;2023-02-11T17:11:21;3.33;;;0.75;;
61756;SDS011;57225;61.460;24.060;2023-02-11T17:14:05;3.35;;;1.20;;
61756;SDS011;57225;61.460;24.060;2023-02-11T17:16:49;10.10;;;1.77;;
61756;SDS011;57225;61.460;24.060;2023-02-11T17:19:35;3.45;;;1.48;;
61756;SDS011;57225;61.460;24.060;2023-02-11T17:22:20;7.32;;;1.45;;
61756;SDS011;57225;61.460;24.060;2023-02-11T17:25:06;6.85;;;1.30;;
61756;SDS011;57225;61.460;24.060;2023-02-11T17:27:50;6.15;;;1.67;;
61756;SDS011;57225;61.460;24.060;2023-02-11T17:30:35;6.00;;;1.30;;
61756;SDS011;57225;61.460;24.060;2023-02-11T17:33:19;6.15;;;1.23;;
61756;SDS011;57225;61.460;24.060;2023-02-11T17:36:05;5.28;;;1.23;;
61756;SDS011;57225;61.460;24.060;2023-02-11T17:38:50;6.47;;;1.35;;
61756;SDS011;57225;61.460;24.060;2023-02-11T17:41:36;3.55;;;1.25;;
61756;SDS011;57225;61.460;24.060;2023-02-11T17:44:21;7.68;;;1.50;;
61756;SDS011;57225;61.460;24.060;2023-02-11T17:47:05;6.78;;;1.13;;
61756;SDS011;57225;61.460;24.060;2023-02-11T17:49:50;5.20;;;1.10;;
61756;SDS011;57225;61.460;24.060;2023-02-11T17:52:35;5.22;;;1.13;;
61756;SDS011;57225;61.460;24.060;2023-02-11T17:55:20;4.05;;;1.20;;
61756;SDS011;57225;61.460;24.060;2023-02-11T17:58:05;7.53;;;1.63;;
61756;SDS011;57225;61.460;24.060;2023-02-11T18:00:49;8.05;;;1.60;;
61756;SDS011;57225;61.460;24.060;2023-02-11T18:03:34;7.38;;;1.17;;
61756;SDS011;57225;61.460;24.060;2023-02-11T18:06:19;9.68;;;2.10;;
61756;SDS011;57225;61.460;24.060;2023-02-11T18:09:04;3.05;;;1.30;;
61756;SDS011;57225;61.460;24.060;2023-02-11T18:11:53;4.88;;;1.70;;
61756;SDS011;57225;61.460;24.060;2023-02-11T18:14:39;9.27;;;3.40;;
61756;SDS011;57225;61.460;24.060;2023-02-11T18:17:24;16.00;;;4.43;;
61756;SDS011;57225;61.460;24.060;2023-02-11T18:20:08;12.77;;;5.18;;
61756;SDS011;57225;61.460;24.060;2023-02-11T18:22:53;12.25;;;3.47;;
61756;SDS011;57225;61.460;24.060;2023-02-11T18:25:40;8.40;;;2.65;;
61756;SDS011;57225;61.460;24.060;2023-02-11T18:28:25;8.75;;;1.33;;
61756;SDS011;57225;61.460;24.060;2023-02-11T18:31:09;5.95;;;1.60;;
61756;SDS011;57225;61.460;24.060;2023-02-11T18:33:54;10.18;;;1.38;;
61756;SDS011;57225;61.460;24.060;2023-02-11T18:36:39;6.40;;;1.45;;
61756;SDS011;57225;61.460;24.060;2023-02-11T18:39:23;5.00;;;1.40;;
61756;SDS011;57225;61.460;24.060;2023-02-11T18:42:09;6.70;;;1.85;;
61756;SDS011;57225;61.460;24.060;2023-02-11T18:44:53;6.00;;;1.58;;